Time;durP1;ratioP1;P1;durP2;ratioP2;P2;SDS_P1;SDS_P2;PMS_P1;PMS_P2;Temp;Humidity;BMP_temperature;BMP_pressure;BME280_temperature;BME280_humidity;BME280_pressure;Samples;Min_cycle;Max_cycle;Signal;HPM_P1;HPM_P2
2022/10/10 00:01:57;;;;;;;5.35;2.72;;;;;;;;;;5032956;28;20029;-73
2022/10/10 00:04:23;;;;;;;9.10;2.58;;;;;;;;;;5032856;28;20037;-73
2022/10/10 00:06:49;;;;;;;9.13;2.40;;;;;;;;;;5031568;28;20025;-73
2022/10/10 00:09:16;;;;;;;14.07;2.50;;;;;;;;;;5047563;28;20470;-73
2022/10/10 00:11:42;;;;;;;7.85;2.85;;;;;;;;;;5032904;28;20035;-73
2022/10/10 00:14:08;;;;;;;9.27;3.05;;;;;;;;;;5032341;28;20433;-73
2022/10/10 00:16:35;;;;;;;10.73;2.90;;;;;;;;;;5048056;28;20030;-73
2022/10/10 00:19:01;;;;;;;9.90;2.70;;;;;;;;;;5032650;28;20021;-73
2022/10/10 00:21:29;;;;;;;7.55;2.83;;;;;;;;;;5032629;28;20028;-74
2022/10/10 00:23:56;;;;;;;10.00;3.00;;;;;;;;;;5031949;28;20043;-73
2022/10/10 00:26:22;;;;;;;9.88;2.42;;;;;;;;;;5032276;28;20029;-73
2022/10/10 00:28:48;;;;;;;10.57;2.50;;;;;;;;;;5032648;28;20039;-73
2022/10/10 00:31:15;;;;;;;7.47;2.85;;;;;;;;;;5032536;28;20078;-74
2022/10/10 00:33:41;;;;;;;8.95;2.63;;;;;;;;;;5032858;28;20033;-73
2022/10/10 00:36:07;;;;;;;5.18;2.30;;;;;;;;;;5032235;28;20092;-74
2022/10/10 00:38:34;;;;;;;7.55;2.53;;;;;;;;;;5032168;28;20027;-73
2022/10/10 00:41:01;;;;;;;11.82;2.92;;;;;;;;;;5032354;28;20026;-73
2022/10/10 00:43:27;;;;;;;16.00;2.80;;;;;;;;;;5032183;28;20042;-73
2022/10/10 00:45:54;;;;;;;10.20;3.03;;;;;;;;;;5031874;28;20055;-74
2022/10/10 00:48:34;;;;;;;7.85;2.85;;;;;;;;;;5032560;28;20040;-71
2022/10/10 00:51:12;;;;;;;7.20;2.63;;;;;;;;;;5032045;28;20025;-73
2022/10/10 00:53:47;;;;;;;12.98;2.60;;;;;;;;;;5032525;28;20025;-73
2022/10/10 00:56:14;;;;;;;10.45;2.70;;;;;;;;;;5031918;28;20830;-73
2022/10/10 00:58:43;;;;;;;6.40;2.70;;;;;;;;;;5032064;28;20037;-73
2022/10/10 01:01:09;;;;;;;9.38;2.35;;;;;;;;;;5032286;28;20028;-73
2022/10/10 01:03:35;;;;;;;5.10;2.60;;;;;;;;;;5030506;28;20041;-73
2022/10/10 01:06:02;;;;;;;9.13;2.42;;;;;;;;;;5031992;28;20029;-73
2022/10/10 01:08:28;;;;;;;5.13;2.70;;;;;;;;;;5032299;28;20022;-73
2022/10/10 01:11:13;;;;;;;7.63;2.53;;;;;;;;;;5032031;28;20025;-73
2022/10/10 01:14:00;;;;;;;5.55;2.30;;;;;;;;;;5031940;28;20409;-73
2022/10/10 01:16:38;;;;;;;6.55;2.63;;;;;;;;;;5032332;28;20029;-74
2022/10/10 01:19:23;;;;;;;12.10;2.97;;;;;;;;;;5036102;28;20035;-74
2022/10/10 01:22:01;;;;;;;8.60;3.10;;;;;;;;;;5035677;28;20017;-73
2022/10/10 01:24:50;;;;;;;6.60;2.50;;;;;;;;;;5035961;28;20052;-73
2022/10/10 01:27:35;;;;;;;5.70;2.53;;;;;;;;;;5035372;28;20010;-73
2022/10/10 01:30:07;;;;;;;8.20;2.58;;;;;;;;;;5035791;28;20010;-73
2022/10/10 01:32:44;;;;;;;6.63;2.40;;;;;;;;;;5035628;28;20030;-73
2022/10/10 01:35:30;;;;;;;8.32;2.58;;;;;;;;;;5035098;28;20056;-73
2022/10/10 01:38:02;;;;;;;6.15;2.55;;;;;;;;;;5035456;28;20029;-73
2022/10/10 01:40:50;;;;;;;8.50;2.53;;;;;;;;;;5034986;28;20025;-73
2022/10/10 01:43:17;;;;;;;10.10;3.15;;;;;;;;;;5034978;28;20087;-74
2022/10/10 01:45:47;;;;;;;6.57;3.10;;;;;;;;;;5035549;28;20036;-73
2022/10/10 01:48:15;;;;;;;7.05;2.95;;;;;;;;;;5035050;28;20034;-73
2022/10/10 01:50:50;;;;;;;8.45;2.58;;;;;;;;;;5035412;28;20031;-73
2022/10/10 01:53:26;;;;;;;5.55;2.80;;;;;;;;;;5035239;28;20055;-74
2022/10/10 01:55:58;;;;;;;8.05;2.63;;;;;;;;;;5034800;28;20024;-74
2022/10/10 01:58:27;;;;;;;10.30;2.53;;;;;;;;;;5034995;28;20048;-73
2022/10/10 02:00:59;;;;;;;4.82;2.17;;;;;;;;;;5035076;28;20052;-73
2022/10/10 02:03:30;;;;;;;9.40;2.70;;;;;;;;;;5034274;28;20030;-73
2022/10/10 02:06:00;;;;;;;5.07;2.53;;;;;;;;;;5035240;28;20035;-73
2022/10/10 02:08:26;;;;;;;9.85;2.70;;;;;;;;;;5035007;28;20040;-74
2022/10/10 02:10:57;;;;;;;6.32;2.50;;;;;;;;;;5035160;28;20025;-73
2022/10/10 02:13:26;;;;;;;9.10;2.58;;;;;;;;;;5034840;28;20388;-74
2022/10/10 02:15:55;;;;;;;6.75;2.47;;;;;;;;;;5034952;28;20022;-73
2022/10/10 02:18:23;;;;;;;9.90;2.50;;;;;;;;;;5034417;28;20497;-73
2022/10/10 02:20:50;;;;;;;10.38;2.80;;;;;;;;;;5034582;28;20037;-73
2022/10/10 02:23:19;;;;;;;7.68;2.70;;;;;;;;;;5034730;28;20035;-72
2022/10/10 02:25:50;;;;;;;6.78;2.35;;;;;;;;;;5034329;28;20044;-73
2022/10/10 02:28:25;;;;;;;10.98;2.50;;;;;;;;;;5033685;28;20030;-73
2022/10/10 02:30:55;;;;;;;8.77;2.30;;;;;;;;;;5034490;28;20355;-73
2022/10/10 02:33:25;;;;;;;6.03;2.77;;;;;;;;;;5034068;28;20036;-73
2022/10/10 02:35:53;;;;;;;8.27;2.70;;;;;;;;;;5035030;28;20017;-74
2022/10/10 02:38:19;;;;;;;11.60;2.90;;;;;;;;;;5034569;28;20033;-73
2022/10/10 02:40:47;;;;;;;6.45;2.33;;;;;;;;;;5034088;28;20275;-74
2022/10/10 02:43:14;;;;;;;6.28;2.50;;;;;;;;;;5034181;28;20049;-73
2022/10/10 02:45:41;;;;;;;8.63;2.40;;;;;;;;;;5034486;28;20028;-73
2022/10/10 02:48:08;;;;;;;7.40;2.60;;;;;;;;;;5034101;28;20036;-73
2022/10/10 02:50:34;;;;;;;8.25;2.20;;;;;;;;;;5034215;28;20032;-73
2022/10/10 02:53:01;;;;;;;8.40;2.40;;;;;;;;;;5034256;28;20048;-73
2022/10/10 02:55:27;;;;;;;7.75;3.00;;;;;;;;;;5034429;28;20475;-73
2022/10/10 02:57:53;;;;;;;7.18;2.80;;;;;;;;;;5033956;28;20018;-73
2022/10/10 03:00:20;;;;;;;8.35;2.72;;;;;;;;;;5034135;28;20033;-73
2022/10/10 03:02:47;;;;;;;4.30;2.33;;;;;;;;;;5033681;28;20028;-74
2022/10/10 03:05:13;;;;;;;7.32;2.33;;;;;;;;;;5033583;28;20029;-73
2022/10/10 03:07:40;;;;;;;7.32;2.35;;;;;;;;;;5033800;28;20381;-73
2022/10/10 03:10:06;;;;;;;8.85;3.13;;;;;;;;;;5034009;28;20041;-74
2022/10/10 03:12:36;;;;;;;9.05;2.70;;;;;;;;;;5033933;28;20040;-73
2022/10/10 03:15:03;;;;;;;8.23;2.70;;;;;;;;;;5033784;28;20386;-73
2022/10/10 03:17:29;;;;;;;4.82;2.72;;;;;;;;;;5033659;28;20033;-73
2022/10/10 03:19:55;;;;;;;9.43;2.38;;;;;;;;;;5033653;28;20018;-73
2022/10/10 03:22:21;;;;;;;14.68;2.85;;;;;;;;;;5033467;28;20508;-73
2022/10/10 03:24:48;;;;;;;13.23;2.97;;;;;;;;;;5033780;28;20024;-73
2022/10/10 03:27:14;;;;;;;10.07;2.53;;;;;;;;;;5033679;28;20021;-73
2022/10/10 03:29:41;;;;;;;7.45;2.42;;;;;;;;;;5033692;28;20029;-73
2022/10/10 03:32:07;;;;;;;4.75;2.45;;;;;;;;;;5048253;28;20029;-73
2022/10/10 03:34:34;;;;;;;8.77;2.53;;;;;;;;;;5033253;28;20032;-73
2022/10/10 03:37:00;;;;;;;8.23;2.72;;;;;;;;;;5049055;28;20025;-73
2022/10/10 03:39:26;;;;;;;9.52;2.80;;;;;;;;;;5032856;28;20029;-73
2022/10/10 03:41:52;;;;;;;6.93;2.88;;;;;;;;;;5032918;28;20017;-74
2022/10/10 03:44:19;;;;;;;9.63;3.00;;;;;;;;;;5033171;28;20067;-73
2022/10/10 03:46:45;;;;;;;10.77;2.53;;;;;;;;;;5033063;28;20033;-73
2022/10/10 03:49:11;;;;;;;6.82;2.83;;;;;;;;;;5033167;28;20026;-74
2022/10/10 03:51:38;;;;;;;8.73;2.78;;;;;;;;;;5033034;28;20051;-73
2022/10/10 03:54:04;;;;;;;6.25;2.95;;;;;;;;;;5032968;28;20021;-74
2022/10/10 03:56:31;;;;;;;5.90;2.83;;;;;;;;;;5032627;28;20017;-73
2022/10/10 03:58:59;;;;;;;10.98;3.30;;;;;;;;;;5032717;28;20444;-73
2022/10/10 04:01:26;;;;;;;9.27;2.85;;;;;;;;;;5032460;28;20135;-74
2022/10/10 04:03:53;;;;;;;14.85;3.00;;;;;;;;;;5032543;28;20414;-73
2022/10/10 04:06:19;;;;;;;5.22;2.97;;;;;;;;;;5032810;28;20029;-73
2022/10/10 04:08:45;;;;;;;7.97;2.58;;;;;;;;;;5032542;28;20037;-73
2022/10/10 04:11:11;;;;;;;5.22;2.42;;;;;;;;;;5031665;28;20017;-73
2022/10/10 04:13:38;;;;;;;8.88;3.08;;;;;;;;;;5032564;28;20042;-73
2022/10/10 04:16:04;;;;;;;9.05;3.15;;;;;;;;;;5031983;28;20029;-73
2022/10/10 04:18:31;;;;;;;8.45;2.90;;;;;;;;;;5032547;28;20040;-73
2022/10/10 04:20:57;;;;;;;8.48;2.42;;;;;;;;;;5032381;28;20014;-73
2022/10/10 04:23:23;;;;;;;7.38;2.55;;;;;;;;;;5032283;28;20033;-73
2022/10/10 04:25:51;;;;;;;10.10;2.78;;;;;;;;;;5032823;28;20500;-73
2022/10/10 04:28:18;;;;;;;8.30;2.35;;;;;;;;;;5031804;28;20474;-74
2022/10/10 04:30:45;;;;;;;15.02;2.72;;;;;;;;;;5032446;28;20413;-73
2022/10/10 04:33:11;;;;;;;7.05;2.30;;;;;;;;;;5032577;28;20033;-73
2022/10/10 04:35:38;;;;;;;6.88;2.58;;;;;;;;;;5032362;28;20026;-73
2022/10/10 04:38:05;;;;;;;8.10;2.42;;;;;;;;;;5047533;28;20489;-74
2022/10/10 04:40:31;;;;;;;6.60;2.47;;;;;;;;;;5047727;28;20040;-73
2022/10/10 04:42:58;;;;;;;6.85;2.42;;;;;;;;;;5032047;28;20044;-73
2022/10/10 04:45:25;;;;;;;9.02;2.92;;;;;;;;;;5030788;28;20493;-73
2022/10/10 04:47:52;;;;;;;6.47;2.72;;;;;;;;;;5032007;28;20021;-73
2022/10/10 04:50:18;;;;;;;5.07;2.42;;;;;;;;;;5032095;28;20467;-74
2022/10/10 04:52:45;;;;;;;7.10;2.65;;;;;;;;;;5034199;28;20025;-74
2022/10/10 04:55:11;;;;;;;12.30;2.72;;;;;;;;;;5036010;28;20025;-73
2022/10/10 04:57:38;;;;;;;7.85;2.85;;;;;;;;;;5035633;28;20441;-73
2022/10/10 05:00:05;;;;;;;7.47;2.90;;;;;;;;;;5036393;28;20022;-73
2022/10/10 05:02:31;;;;;;;8.85;3.05;;;;;;;;;;5035718;28;20025;-73
2022/10/10 05:04:58;;;;;;;10.10;3.20;;;;;;;;;;5036088;28;20486;-73
2022/10/10 05:07:24;;;;;;;8.57;3.17;;;;;;;;;;5035711;28;20443;-73
2022/10/10 05:09:50;;;;;;;9.73;3.08;;;;;;;;;;5035768;28;20041;-73
2022/10/10 05:12:17;;;;;;;9.25;3.10;;;;;;;;;;5035948;28;20021;-73
2022/10/10 05:14:43;;;;;;;5.30;3.10;;;;;;;;;;5035580;28;20528;-73
2022/10/10 05:17:10;;;;;;;11.13;2.67;;;;;;;;;;5035567;28;20478;-73
2022/10/10 05:19:36;;;;;;;11.55;3.10;;;;;;;;;;5035590;28;20021;-73
2022/10/10 05:22:02;;;;;;;9.18;3.53;;;;;;;;;;5035326;28;20048;-73
2022/10/10 05:24:29;;;;;;;15.02;3.47;;;;;;;;;;5035329;28;20494;-73
2022/10/10 05:26:55;;;;;;;10.38;3.28;;;;;;;;;;5035401;28;20026;-73
2022/10/10 05:29:21;;;;;;;16.30;3.40;;;;;;;;;;5035409;28;20025;-73
2022/10/10 05:31:48;;;;;;;10.52;2.85;;;;;;;;;;5035335;28;20024;-73
2022/10/10 05:34:14;;;;;;;9.57;2.75;;;;;;;;;;5035253;28;20029;-73
2022/10/10 05:36:41;;;;;;;10.40;3.15;;;;;;;;;;5035236;28;20021;-73
2022/10/10 05:39:08;;;;;;;6.75;2.50;;;;;;;;;;5035560;28;20032;-74
2022/10/10 05:41:34;;;;;;;7.03;2.47;;;;;;;;;;5034649;28;20030;-73
2022/10/10 05:44:01;;;;;;;9.05;2.75;;;;;;;;;;5035032;28;20036;-74
2022/10/10 05:46:27;;;;;;;8.95;2.40;;;;;;;;;;5035472;28;20018;-73
2022/10/10 05:48:53;;;;;;;6.15;2.53;;;;;;;;;;5034924;28;20025;-73
2022/10/10 05:51:20;;;;;;;3.53;2.55;;;;;;;;;;5035304;28;20024;-72
2022/10/10 05:53:47;;;;;;;7.78;3.35;;;;;;;;;;5034937;28;20025;-73
2022/10/10 05:56:16;;;;;;;9.23;3.33;;;;;;;;;;5034497;28;20021;-73
2022/10/10 05:58:43;;;;;;;7.90;2.85;;;;;;;;;;5035249;28;20038;-73
2022/10/10 06:01:10;;;;;;;8.77;3.10;;;;;;;;;;5051003;28;20047;-73
2022/10/10 06:03:36;;;;;;;12.07;3.38;;;;;;;;;;5034071;28;20044;-73
2022/10/10 06:06:03;;;;;;;14.02;3.40;;;;;;;;;;5035331;28;20017;-72
2022/10/10 06:08:31;;;;;;;12.45;3.33;;;;;;;;;;5034852;28;20025;-73
2022/10/10 06:11:01;;;;;;;8.70;2.92;;;;;;;;;;5034563;28;20032;-73
2022/10/10 06:13:28;;;;;;;8.00;3.13;;;;;;;;;;5028205;28;20052;-73
2022/10/10 06:15:54;;;;;;;13.70;2.95;;;;;;;;;;5033231;28;20026;-74
2022/10/10 06:18:20;;;;;;;7.65;2.47;;;;;;;;;;5034475;28;20581;-73
2022/10/10 06:20:47;;;;;;;5.00;2.50;;;;;;;;;;5033636;28;20024;-74
2022/10/10 06:23:13;;;;;;;5.75;2.33;;;;;;;;;;5033888;28;20045;-73
2022/10/10 06:25:39;;;;;;;18.15;3.00;;;;;;;;;;5033751;28;20025;-74
2022/10/10 06:28:06;;;;;;;5.72;2.42;;;;;;;;;;5036876;28;20033;-74
2022/10/10 06:30:33;;;;;;;7.72;2.30;;;;;;;;;;5038666;28;20025;-73
2022/10/10 06:33:00;;;;;;;12.27;2.85;;;;;;;;;;5030277;28;20021;-74
2022/10/10 06:35:26;;;;;;;7.22;2.67;;;;;;;;;;5031773;28;20090;-73
2022/10/10 06:37:53;;;;;;;6.68;2.33;;;;;;;;;;5031357;28;20017;-73
2022/10/10 06:40:19;;;;;;;7.78;2.45;;;;;;;;;;5032026;28;20033;-74
2022/10/10 06:42:45;;;;;;;8.98;2.42;;;;;;;;;;5032379;28;20302;-73
2022/10/10 06:45:11;;;;;;;11.15;2.28;;;;;;;;;;5030871;28;20040;-73
2022/10/10 06:47:38;;;;;;;8.63;2.28;;;;;;;;;;5032051;28;20461;-73
2022/10/10 06:50:05;;;;;;;7.35;2.40;;;;;;;;;;5031759;28;20026;-74
2022/10/10 06:52:31;;;;;;;4.32;2.20;;;;;;;;;;5031930;28;20372;-74
2022/10/10 06:54:57;;;;;;;6.97;1.80;;;;;;;;;;5031538;28;20025;-74
2022/10/10 06:57:24;;;;;;;4.38;2.00;;;;;;;;;;5032165;28;20079;-73
2022/10/10 06:59:50;;;;;;;14.70;2.92;;;;;;;;;;5032072;28;20033;-74
2022/10/10 07:02:17;;;;;;;12.93;2.60;;;;;;;;;;5032787;28;20481;-73
2022/10/10 07:04:43;;;;;;;8.82;2.90;;;;;;;;;;5030733;28;20103;-73
2022/10/10 07:07:09;;;;;;;9.13;3.53;;;;;;;;;;5036229;28;20032;-73
2022/10/10 07:09:36;;;;;;;6.47;2.83;;;;;;;;;;5030280;28;20026;-73
2022/10/10 07:12:02;;;;;;;12.32;3.28;;;;;;;;;;5032853;28;20021;-72
2022/10/10 07:14:28;;;;;;;5.97;2.58;;;;;;;;;;5025199;28;20045;-74
2022/10/10 07:16:55;;;;;;;9.20;2.08;;;;;;;;;;5031618;28;20044;-73
2022/10/10 07:19:23;;;;;;;7.72;2.42;;;;;;;;;;5031021;28;20037;-74
2022/10/10 07:21:50;;;;;;;6.72;1.98;;;;;;;;;;5033441;28;20043;-73
2022/10/10 07:24:16;;;;;;;7.75;1.75;;;;;;;;;;5029743;28;20102;-73
2022/10/10 07:26:43;;;;;;;6.15;2.10;;;;;;;;;;5030684;28;20364;-75
2022/10/10 07:29:09;;;;;;;9.88;2.35;;;;;;;;;;5031792;28;20025;-75
2022/10/10 07:31:35;;;;;;;9.20;2.40;;;;;;;;;;5031223;28;20398;-77
2022/10/10 07:34:02;;;;;;;6.82;1.92;;;;;;;;;;5029856;28;20017;-76
2022/10/10 07:36:28;;;;;;;7.55;1.90;;;;;;;;;;5029108;28;20042;-77
2022/10/10 07:38:54;;;;;;;6.07;1.88;;;;;;;;;;5031392;28;20025;-76
2022/10/10 07:41:21;;;;;;;5.65;1.98;;;;;;;;;;5023674;28;20052;-76
2022/10/10 07:43:47;;;;;;;8.90;2.00;;;;;;;;;;5029984;28;20041;-76
2022/10/10 07:46:18;;;;;;;5.03;2.08;;;;;;;;;;5030919;28;20029;-77
2022/10/10 07:48:44;;;;;;;5.97;1.80;;;;;;;;;;5031503;28;20031;-76
2022/10/10 07:51:11;;;;;;;4.97;1.70;;;;;;;;;;5030977;28;20033;-76
2022/10/10 07:53:37;;;;;;;7.18;1.60;;;;;;;;;;5030746;28;20086;-76
2022/10/10 07:56:05;;;;;;;6.40;2.10;;;;;;;;;;5030399;28;20032;-77
2022/10/10 07:58:32;;;;;;;7.15;2.35;;;;;;;;;;5026227;28;20026;-77
2022/10/10 08:01:02;;;;;;;6.93;1.65;;;;;;;;;;5013964;28;20037;-77
2022/10/10 08:03:28;;;;;;;6.63;1.90;;;;;;;;;;5023159;28;20452;-77
2022/10/10 08:05:55;;;;;;;6.10;1.98;;;;;;;;;;5015549;28;20032;-77
2022/10/10 08:08:21;;;;;;;6.88;2.00;;;;;;;;;;5030855;28;20030;-77
2022/10/10 08:10:47;;;;;;;7.68;1.77;;;;;;;;;;5030757;28;20034;-78
2022/10/10 08:13:14;;;;;;;2.53;1.40;;;;;;;;;;5029721;28;20041;-78
2022/10/10 08:15:40;;;;;;;4.20;1.67;;;;;;;;;;5015333;28;20028;-77
2022/10/10 08:18:07;;;;;;;6.15;1.88;;;;;;;;;;5029796;28;20021;-77
2022/10/10 08:20:33;;;;;;;5.38;1.70;;;;;;;;;;5030543;28;20041;-77
2022/10/10 08:23:01;;;;;;;5.90;1.67;;;;;;;;;;5033591;28;20561;-77
2022/10/10 08:25:27;;;;;;;5.47;1.70;;;;;;;;;;5030515;28;20034;-78
2022/10/10 08:27:53;;;;;;;6.57;1.60;;;;;;;;;;5027262;28;20022;-78
2022/10/10 08:30:20;;;;;;;10.30;1.83;;;;;;;;;;5030573;28;20033;-77
2022/10/10 08:32:46;;;;;;;5.70;1.98;;;;;;;;;;5031194;28;20208;-78
2022/10/10 08:35:12;;;;;;;8.35;1.85;;;;;;;;;;5029988;28;20037;-77
2022/10/10 08:37:39;;;;;;;5.50;1.77;;;;;;;;;;5030022;28;20490;-78
2022/10/10 08:40:05;;;;;;;7.20;2.08;;;;;;;;;;5020121;28;20103;-78
2022/10/10 08:42:36;;;;;;;6.22;1.55;;;;;;;;;;5029195;28;20025;-77
2022/10/10 08:45:04;;;;;;;10.57;2.08;;;;;;;;;;5032528;28;20033;-78
2022/10/10 08:47:36;;;;;;;8.55;1.90;;;;;;;;;;5031401;28;20039;-77
2022/10/10 08:50:21;;;;;;;4.75;1.83;;;;;;;;;;5030831;28;20039;-77
2022/10/10 08:52:53;;;;;;;4.57;1.67;;;;;;;;;;5029945;28;20418;-77
2022/10/10 08:55:29;;;;;;;5.30;1.83;;;;;;;;;;5030226;28;20127;-77
2022/10/10 08:57:59;;;;;;;7.05;1.90;;;;;;;;;;5030583;28;20025;-77
2022/10/10 09:00:27;;;;;;;5.50;1.58;;;;;;;;;;5033589;28;20039;-77
2022/10/10 09:02:56;;;;;;;4.25;1.42;;;;;;;;;;5049324;28;20029;-75
2022/10/10 09:05:32;;;;;;;3.88;1.50;;;;;;;;;;5029146;28;20043;-76
2022/10/10 09:08:18;;;;;;;4.18;0.93;;;;;;;;;;5028398;28;20033;-77
2022/10/10 09:11:06;;;;;;;5.15;1.30;;;;;;;;;;5029939;28;20034;-77
2022/10/10 09:13:59;;;;;;;5.45;1.33;;;;;;;;;;5032998;28;20051;-78
2022/10/10 09:16:40;;;;;;;6.18;1.38;;;;;;;;;;5022942;28;20039;-76
2022/10/10 09:19:10;;;;;;;4.45;1.50;;;;;;;;;;5027254;28;20310;-74
2022/10/10 09:21:38;;;;;;;5.75;1.38;;;;;;;;;;5027702;28;20037;-82
2022/10/10 09:24:26;;;;;;;9.07;1.73;;;;;;;;;;5029603;28;20040;-75
2022/10/10 09:26:54;;;;;;;7.10;1.50;;;;;;;;;;5030281;28;20029;-78
2022/10/10 09:29:43;;;;;;;6.75;1.40;;;;;;;;;;5028627;28;20028;-78
2022/10/10 09:32:28;;;;;;;5.47;1.70;;;;;;;;;;5028898;28;20039;-78
2022/10/10 09:34:58;;;;;;;10.05;1.85;;;;;;;;;;5029894;28;20047;-79
2022/10/10 09:37:29;;;;;;;10.32;1.52;;;;;;;;;;5030093;28;20028;-78
2022/10/10 09:39:56;;;;;;;8.05;1.52;;;;;;;;;;5032922;28;20033;-77
2022/10/10 09:42:28;;;;;;;17.70;2.33;;;;;;;;;;5034172;28;20026;-78
2022/10/10 09:44:55;;;;;;;13.82;1.90;;;;;;;;;;5036057;28;20505;-77
2022/10/10 09:47:21;;;;;;;7.93;1.75;;;;;;;;;;5033235;28;20037;-77
2022/10/10 09:49:48;;;;;;;6.93;1.65;;;;;;;;;;5027237;28;20026;-78
2022/10/10 09:52:22;;;;;;;8.30;1.45;;;;;;;;;;5038586;28;20039;-77
2022/10/10 09:54:49;;;;;;;6.75;1.52;;;;;;;;;;5033299;28;20013;-77
2022/10/10 09:57:19;;;;;;;5.35;1.40;;;;;;;;;;5033429;28;20038;-79
2022/10/10 09:59:46;;;;;;;6.50;1.50;;;;;;;;;;5033482;28;20025;-77
2022/10/10 10:02:12;;;;;;;6.82;1.45;;;;;;;;;;5030069;28;20030;-76
2022/10/10 10:04:39;;;;;;;7.43;1.63;;;;;;;;;;5013332;28;20034;-77
2022/10/10 10:07:07;;;;;;;8.27;1.60;;;;;;;;;;5013149;28;20022;-77
2022/10/10 10:09:34;;;;;;;4.90;1.50;;;;;;;;;;5013563;28;20029;-77
2022/10/10 10:12:00;;;;;;;6.97;1.52;;;;;;;;;;5013159;28;20032;-77
2022/10/10 10:14:28;;;;;;;8.70;2.03;;;;;;;;;;5013205;28;20119;-76
2022/10/10 10:16:55;;;;;;;4.43;1.63;;;;;;;;;;5026614;28;20034;-76
2022/10/10 10:19:35;;;;;;;4.13;1.30;;;;;;;;;;5033042;28;20033;-77
2022/10/10 10:22:02;;;;;;;7.43;1.50;;;;;;;;;;5032725;28;20513;-77
2022/10/10 10:24:35;;;;;;;6.38;1.67;;;;;;;;;;5032715;28;20041;-77
2022/10/10 10:27:08;;;;;;;7.55;3.60;;;;;;;;;;5032727;28;20508;-77
2022/10/10 10:29:35;;;;;;;4.68;1.20;;;;;;;;;;5032893;28;20025;-77
2022/10/10 10:32:13;;;;;;;6.13;1.58;;;;;;;;;;5032076;28;20019;-77
2022/10/10 10:34:47;;;;;;;7.38;1.80;;;;;;;;;;5032720;28;20025;-76
2022/10/10 10:37:14;;;;;;;4.90;1.50;;;;;;;;;;5031444;28;20044;-77
2022/10/10 10:39:52;;;;;;;10.85;1.55;;;;;;;;;;5032625;28;20026;-77
2022/10/10 10:42:29;;;;;;;3.60;1.33;;;;;;;;;;5032229;28;20035;-77
2022/10/10 10:45:01;;;;;;;5.15;1.35;;;;;;;;;;5032549;28;20038;-76
2022/10/10 10:47:39;;;;;;;6.60;1.65;;;;;;;;;;5031783;28;20777;-77
2022/10/10 10:50:32;;;;;;;6.05;1.52;;;;;;;;;;5031699;28;20021;-77
2022/10/10 10:53:01;;;;;;;6.50;1.40;;;;;;;;;;5045052;28;20045;-77
2022/10/10 10:55:34;;;;;;;5.93;1.50;;;;;;;;;;5032366;28;20021;-77
2022/10/10 10:58:15;;;;;;;3.47;1.50;;;;;;;;;;5032242;28;20028;-77
2022/10/10 11:01:14;;;;;;;7.03;1.48;;;;;;;;;;5032155;28;20097;-77
2022/10/10 11:03:40;;;;;;;5.40;1.48;;;;;;;;;;5010897;28;20048;-76
2022/10/10 11:06:18;;;;;;;7.00;1.55;;;;;;;;;;5011262;28;20529;-77
2022/10/10 11:09:05;;;;;;;5.55;1.70;;;;;;;;;;5011210;28;20025;-76
2022/10/10 11:11:44;;;;;;;8.63;1.60;;;;;;;;;;5011216;28;20795;-77
2022/10/10 11:14:28;;;;;;;6.10;1.77;;;;;;;;;;5010648;28;20188;-76
2022/10/10 11:16:58;;;;;;;11.38;2.13;;;;;;;;;;5011076;28;20044;-78
2022/10/10 11:19:32;;;;;;;8.18;1.45;;;;;;;;;;5013682;28;20048;-78
2022/10/10 11:22:06;;;;;;;8.27;1.75;;;;;;;;;;5029137;28;20410;-77
2022/10/10 11:24:43;;;;;;;9.10;1.67;;;;;;;;;;5008989;28;20092;-77
2022/10/10 11:27:33;;;;;;;8.48;1.55;;;;;;;;;;5013717;28;20546;-78
2022/10/10 11:30:05;;;;;;;8.45;1.30;;;;;;;;;;5001460;28;20071;-76
2022/10/10 11:32:42;;;;;;;5.25;1.60;;;;;;;;;;5009055;28;20041;-76
2022/10/10 11:35:18;;;;;;;8.32;1.75;;;;;;;;;;5009416;28;20025;-77
2022/10/10 11:37:47;;;;;;;6.32;1.42;;;;;;;;;;5007114;28;20034;-78
2022/10/10 11:40:36;;;;;;;5.80;1.40;;;;;;;;;;5029494;28;20032;-78
2022/10/10 11:43:05;;;;;;;9.98;1.75;;;;;;;;;;5037159;28;20036;-78
2022/10/10 11:45:34;;;;;;;10.60;1.85;;;;;;;;;;5022022;28;20029;-77
2022/10/10 11:48:01;;;;;;;6.40;1.65;;;;;;;;;;5034598;28;20025;-77
2022/10/10 11:50:28;;;;;;;6.97;1.63;;;;;;;;;;5024012;28;20099;-78
2022/10/10 11:53:13;;;;;;;7.93;1.65;;;;;;;;;;5027713;28;20025;-78
2022/10/10 11:55:42;;;;;;;6.00;1.40;;;;;;;;;;5031345;28;20029;-78
2022/10/10 11:58:08;;;;;;;6.00;1.73;;;;;;;;;;5030446;28;20017;-78
2022/10/10 12:00:37;;;;;;;7.15;1.33;;;;;;;;;;5029972;28;20060;-78
2022/10/10 12:03:03;;;;;;;5.22;1.45;;;;;;;;;;5049581;28;20027;-78
2022/10/10 12:05:37;;;;;;;5.40;1.55;;;;;;;;;;5043761;28;20059;-78
2022/10/10 12:08:12;;;;;;;3.75;1.38;;;;;;;;;;5031026;28;20021;-78
2022/10/10 12:10:43;;;;;;;6.85;1.55;;;;;;;;;;5030535;28;20034;-78
2022/10/10 12:13:31;;;;;;;4.65;1.60;;;;;;;;;;5026064;28;20046;-79
2022/10/10 12:16:01;;;;;;;7.25;1.60;;;;;;;;;;5025959;28;20086;-78
2022/10/10 12:18:28;;;;;;;5.93;1.77;;;;;;;;;;5030360;28;20021;-78
2022/10/10 12:21:12;;;;;;;5.00;1.60;;;;;;;;;;5030817;28;20029;-78
2022/10/10 12:23:40;;;;;;;4.78;1.50;;;;;;;;;;5030689;28;20055;-78
2022/10/10 12:26:06;;;;;;;3.67;1.48;;;;;;;;;;5029301;28;20674;-79
2022/10/10 12:28:37;;;;;;;4.70;1.50;;;;;;;;;;5027675;28;20390;-78
2022/10/10 12:31:03;;;;;;;5.80;1.33;;;;;;;;;;5030605;28;20025;-78
2022/10/10 12:33:32;;;;;;;3.97;1.42;;;;;;;;;;5030621;28;20030;-79
2022/10/10 12:36:17;;;;;;;7.30;1.50;;;;;;;;;;5033379;28;20484;-79
2022/10/10 12:38:59;;;;;;;5.47;1.65;;;;;;;;;;5030306;28;20029;-79
2022/10/10 12:41:45;;;;;;;4.90;1.70;;;;;;;;;;5035777;28;20047;-79
2022/10/10 12:44:18;;;;;;;4.35;1.40;;;;;;;;;;5014348;28;20063;-78
2022/10/10 12:46:47;;;;;;;6.45;1.95;;;;;;;;;;5032869;28;20406;-78
2022/10/10 12:49:18;;;;;;;4.55;1.35;;;;;;;;;;5031277;28;20026;-78
2022/10/10 12:51:57;;;;;;;3.75;1.40;;;;;;;;;;5031226;28;20128;-78
2022/10/10 12:54:25;;;;;;;4.63;1.33;;;;;;;;;;5031088;28;20363;-78
2022/10/10 12:56:52;;;;;;;6.85;1.85;;;;;;;;;;5024288;28;20048;-78
2022/10/10 12:59:21;;;;;;;4.78;1.65;;;;;;;;;;5010693;28;20022;-80
2022/10/10 13:01:52;;;;;;;4.78;1.30;;;;;;;;;;5023435;28;20017;-79
2022/10/10 13:04:20;;;;;;;5.75;1.80;;;;;;;;;;5028219;28;20041;-79
2022/10/10 13:06:47;;;;;;;3.30;1.33;;;;;;;;;;5033583;28;20436;-79
2022/10/10 13:09:18;;;;;;;5.22;1.45;;;;;;;;;;5030083;28;20035;-79
2022/10/10 13:11:56;;;;;;;6.97;1.30;;;;;;;;;;5030037;28;20036;-78
2022/10/10 13:14:23;;;;;;;3.88;1.30;;;;;;;;;;5033482;28;20041;-80
2022/10/10 13:16:49;;;;;;;6.57;1.50;;;;;;;;;;5045247;28;20039;-79
2022/10/10 13:19:20;;;;;;;8.00;1.88;;;;;;;;;;5053866;28;20029;-79
2022/10/10 13:21:46;;;;;;;4.95;1.55;;;;;;;;;;5054279;28;20033;-80
2022/10/10 13:24:17;;;;;;;3.90;1.35;;;;;;;;;;5037949;28;20406;-79
2022/10/10 13:26:48;;;;;;;4.97;1.27;;;;;;;;;;5032610;28;20516;-78
2022/10/10 13:29:21;;;;;;;3.97;1.20;;;;;;;;;;5034121;28;20026;-80
2022/10/10 13:31:47;;;;;;;8.45;2.03;;;;;;;;;;5033843;28;20028;-80
2022/10/10 13:34:17;;;;;;;3.70;1.55;;;;;;;;;;5043739;28;20544;-79
2022/10/10 13:36:43;;;;;;;3.07;1.27;;;;;;;;;;5033603;28;20025;-79
2022/10/10 13:39:14;;;;;;;4.63;1.70;;;;;;;;;;5033663;28;20025;-80
2022/10/10 13:41:43;;;;;;;6.85;1.52;;;;;;;;;;5033921;28;20017;-80
2022/10/10 13:44:12;;;;;;;6.80;1.60;;;;;;;;;;5033555;28;20065;-80
2022/10/10 13:46:39;;;;;;;4.32;1.38;;;;;;;;;;5033604;28;20029;-80
2022/10/10 13:49:13;;;;;;;9.85;1.75;;;;;;;;;;5033740;28;20017;-79
2022/10/10 13:51:40;;;;;;;4.72;1.20;;;;;;;;;;5040357;28;20389;-80
2022/10/10 13:54:26;;;;;;;7.22;1.42;;;;;;;;;;5033007;28;20037;-80
2022/10/10 13:56:53;;;;;;;4.18;1.45;;;;;;;;;;5033388;28;20025;-80
2022/10/10 13:59:20;;;;;;;10.57;1.65;;;;;;;;;;5033465;28;20018;-80
2022/10/10 14:01:47;;;;;;;4.00;1.38;;;;;;;;;;5033590;28;20524;-80
2022/10/10 14:04:22;;;;;;;4.75;1.35;;;;;;;;;;5033269;28;20048;-81
2022/10/10 14:07:09;;;;;;;5.57;1.88;;;;;;;;;;5032789;28;20027;-80
2022/10/10 14:09:39;;;;;;;6.60;1.88;;;;;;;;;;5031844;28;20042;-80
2022/10/10 14:12:08;;;;;;;8.43;1.52;;;;;;;;;;5033216;28;20029;-80
2022/10/10 14:14:39;;;;;;;3.15;1.27;;;;;;;;;;5032985;28;20045;-79
2022/10/10 14:17:06;;;;;;;5.53;1.35;;;;;;;;;;5033101;28;20029;-78
2022/10/10 14:19:32;;;;;;;4.25;1.13;;;;;;;;;;5031894;28;20025;-80
2022/10/10 14:21:59;;;;;;;5.40;1.50;;;;;;;;;;5033249;28;20025;-79
2022/10/10 14:24:25;;;;;;;4.43;1.48;;;;;;;;;;5031968;28;20482;-79
2022/10/10 14:26:52;;;;;;;4.85;1.58;;;;;;;;;;5033087;28;20028;-79
2022/10/10 14:29:19;;;;;;;6.50;1.55;;;;;;;;;;5033399;28;20025;-79
2022/10/10 14:31:46;;;;;;;6.50;1.40;;;;;;;;;;5032924;28;20025;-79
2022/10/10 14:34:13;;;;;;;5.50;1.70;;;;;;;;;;5032910;28;20025;-80
2022/10/10 14:36:41;;;;;;;7.28;1.55;;;;;;;;;;5032616;28;20021;-79
2022/10/10 14:39:09;;;;;;;4.20;1.33;;;;;;;;;;5032390;28;20025;-79
2022/10/10 14:41:35;;;;;;;6.90;1.50;;;;;;;;;;5032333;28;20044;-79
2022/10/10 14:44:01;;;;;;;7.20;1.38;;;;;;;;;;5032763;28;20473;-80
2022/10/10 14:46:28;;;;;;;8.07;1.58;;;;;;;;;;5032720;28;20043;-79
2022/10/10 14:48:54;;;;;;;4.10;1.40;;;;;;;;;;5031535;28;20021;-80
2022/10/10 14:51:20;;;;;;;5.45;1.33;;;;;;;;;;5035355;28;20106;-78
2022/10/10 14:53:47;;;;;;;6.53;1.40;;;;;;;;;;5035453;28;20059;-79
2022/10/10 14:56:13;;;;;;;6.47;1.77;;;;;;;;;;5032810;28;20021;-80